createdAt,value
2019-05-17T00:01:49.820Z,8.27
2019-05-17T00:04:36.421Z,8.31
2019-05-17T00:07:27.258Z,8.19
2019-05-17T00:10:12.175Z,8.07
2019-05-17T00:12:43.253Z,8.10
2019-05-17T00:15:24.034Z,7.93
2019-05-17T00:18:18.346Z,7.96
2019-05-17T00:20:51.382Z,7.92
2019-05-17T00:26:18.045Z,7.92
2019-05-17T00:28:52.807Z,8.06
2019-05-17T00:31:37.036Z,8.07
2019-05-17T00:34:17.226Z,8.01
2019-05-17T00:36:51.578Z,8.13
2019-05-17T00:39:41.638Z,7.96
2019-05-17T00:42:32.160Z,7.87
2019-05-17T00:45:09.376Z,7.74
2019-05-17T00:48:16.954Z,7.80
2019-05-17T00:50:54.203Z,7.86
2019-05-17T00:53:33.177Z,7.81
2019-05-17T00:59:12.648Z,7.57
2019-05-17T01:01:56.939Z,7.40
2019-05-17T01:04:28.999Z,7.30
2019-05-17T01:07:28.542Z,7.16
2019-05-17T01:10:27.337Z,7.18
2019-05-17T01:12:58.532Z,6.97
2019-05-17T01:15:44.610Z,7.00
2019-05-17T01:18:16.269Z,6.85
2019-05-17T01:20:59.906Z,6.77
2019-05-17T01:23:30.229Z,6.74
2019-05-17T01:26:07.513Z,6.76
2019-05-17T01:28:40.746Z,6.85
2019-05-17T01:31:17.089Z,6.88
2019-05-17T01:33:56.498Z,6.79
2019-05-17T01:36:40.373Z,6.75
2019-05-17T01:39:17.675Z,6.67
2019-05-17T01:41:47.732Z,6.54
2019-05-17T01:44:28.015Z,6.44
2019-05-17T01:47:20.628Z,6.27
2019-05-17T01:49:53.318Z,6.28
2019-05-17T01:52:23.092Z,6.22
2019-05-17T01:54:57.684Z,6.34
2019-05-17T01:57:37.266Z,6.19
2019-05-17T02:00:22.825Z,6.11
2019-05-17T02:03:02.202Z,6.11
2019-05-17T02:05:41.477Z,6.10
2019-05-17T02:08:11.354Z,6.15
2019-05-17T02:10:41.520Z,6.13
2019-05-17T02:13:42.549Z,6.10
2019-05-17T02:16:26.625Z,6.03
2019-05-17T02:19:46.519Z,6.02
2019-05-17T02:21:57.973Z,6.03
2019-05-17T02:24:39.940Z,5.82
2019-05-17T02:27:25.198Z,5.73
2019-05-17T02:30:13.537Z,5.41
2019-05-17T02:32:54.062Z,5.73
2019-05-17T02:35:36.465Z,5.45
2019-05-17T02:38:18.087Z,5.44
2019-05-17T02:40:57.507Z,5.25
2019-05-17T02:43:38.644Z,5.18
2019-05-17T02:46:06.247Z,5.04
2019-05-17T02:48:55.450Z,4.89
2019-05-17T02:51:33.888Z,4.76
2019-05-17T02:54:08.063Z,4.74
2019-05-17T02:56:38.255Z,4.63
2019-05-17T02:59:13.162Z,4.65
2019-05-17T03:02:12.634Z,4.55
2019-05-17T03:05:04.049Z,4.53
2019-05-17T03:07:53.627Z,4.47
2019-05-17T03:10:29.270Z,4.54
2019-05-17T03:13:05.143Z,4.70
2019-05-17T03:15:46.973Z,4.80
2019-05-17T03:18:36.683Z,4.91
2019-05-17T03:24:16.408Z,4.97
2019-05-17T03:27:02.903Z,4.94
2019-05-17T03:29:44.004Z,4.93
2019-05-17T03:32:36.100Z,4.90
2019-05-17T03:35:07.198Z,4.93
2019-05-17T03:37:53.958Z,4.84
2019-05-17T03:40:55.119Z,4.89
2019-05-17T03:43:13.790Z,4.77
2019-05-17T03:45:53.149Z,4.71
2019-05-17T03:48:23.866Z,4.82
2019-05-17T03:50:58.782Z,4.73
2019-05-17T03:53:33.633Z,4.72
2019-05-17T03:56:07.285Z,4.69
2019-05-17T03:58:46.425Z,4.77
2019-05-17T04:01:19.372Z,4.85
2019-05-17T04:03:54.123Z,5.16
2019-05-17T04:06:26.708Z,5.06
2019-05-17T04:09:03.616Z,4.96
2019-05-17T04:11:36.352Z,4.96
2019-05-17T04:14:09.305Z,5.04
2019-05-17T04:16:38.959Z,5.03
2019-05-17T04:20:16.078Z,5.06
2019-05-17T04:23:23.003Z,5.09
2019-05-17T04:26:26.903Z,5.25
2019-05-17T04:29:27.725Z,5.41
2019-05-17T04:32:32.989Z,5.46
2019-05-17T04:35:05.530Z,5.53
2019-05-17T04:38:23.634Z,5.59
2019-05-17T04:41:38.746Z,5.75
2019-05-17T04:43:45.099Z,5.77
2019-05-17T04:46:24.723Z,5.94
2019-05-17T04:49:14.926Z,6.07
2019-05-17T04:52:17.063Z,6.22
2019-05-17T04:54:46.873Z,6.48
2019-05-17T05:00:53.328Z,6.92
2019-05-17T05:04:03.994Z,7.17
2019-05-17T05:07:17.707Z,7.34
2019-05-17T05:10:02.988Z,7.55
2019-05-17T05:13:06.228Z,7.79
2019-05-17T05:16:09.955Z,7.88
2019-05-17T05:18:59.123Z,7.96
2019-05-17T05:21:46.403Z,8.14
2019-05-17T05:24:36.674Z,8.33
2019-05-17T05:27:35.876Z,8.52
2019-05-17T05:30:15.020Z,8.86
2019-05-17T05:40:21.350Z,9.62
2019-05-17T05:43:37.628Z,9.83
2019-05-17T05:46:12.778Z,9.69
2019-05-17T05:48:56.738Z,9.85
2019-05-17T05:52:13.675Z,9.96
2019-05-17T05:55:18.176Z,9.85
2019-05-17T06:07:14.498Z,10.22
2019-05-17T06:09:44.826Z,10.35
2019-05-17T16:39:17.942Z,20.99
2019-05-17T16:41:47.205Z,21.95
2019-05-17T16:44:16.511Z,22.77
2019-05-17T16:46:45.955Z,23.77
2019-05-17T16:49:15.309Z,24.52
2019-05-17T16:51:44.748Z,24.45
2019-05-17T16:54:14.118Z,23.49
2019-05-17T16:56:43.599Z,22.36
2019-05-17T16:59:12.920Z,21.48
2019-05-17T17:01:42.226Z,20.90
2019-05-17T17:04:11.604Z,20.14
2019-05-17T17:06:41.064Z,19.81
2019-05-17T17:09:10.677Z,19.65
2019-05-17T17:11:45.661Z,19.75
2019-05-17T17:14:13.711Z,19.72
2019-05-17T17:16:43.125Z,19.60
2019-05-17T17:19:12.545Z,19.16
2019-05-17T17:21:41.887Z,19.10
2019-05-17T17:24:11.247Z,18.85
2019-05-17T17:26:40.552Z,18.67
2019-05-17T17:29:12.973Z,18.55
2019-05-17T17:31:42.816Z,18.46
2019-05-17T17:34:12.244Z,18.40
2019-05-17T17:36:41.837Z,18.23
2019-05-17T17:39:11.283Z,18.09
2019-05-17T17:41:40.866Z,17.96
2019-05-17T17:44:10.531Z,17.84
2019-05-17T17:46:39.996Z,17.51
2019-05-17T17:49:09.432Z,17.17
2019-05-17T17:51:39.023Z,17.24
2019-05-17T17:54:08.576Z,16.99
2019-05-17T17:56:38.128Z,16.75
2019-05-17T17:59:07.636Z,16.20
2019-05-17T18:01:37.259Z,16.05
2019-05-17T18:04:06.858Z,15.84
2019-05-17T18:06:36.399Z,15.66
2019-05-17T18:09:06.518Z,15.48
2019-05-17T18:11:36.194Z,15.34
2019-05-17T18:14:13.245Z,15.22
2019-05-17T18:16:36.904Z,15.02
2019-05-17T18:19:06.333Z,14.83
2019-05-17T18:21:35.777Z,14.69
2019-05-17T18:24:05.455Z,14.51
2019-05-17T18:26:35.022Z,14.33
2019-05-17T18:29:07.827Z,14.17
2019-05-17T18:31:35.850Z,14.08
2019-05-17T18:34:05.972Z,14.01
2019-05-17T18:36:38.371Z,14.02
2019-05-17T18:39:08.002Z,13.65
2019-05-17T18:41:37.518Z,13.37
2019-05-17T18:44:07.075Z,13.28
2019-05-17T18:46:36.521Z,13.41
2019-05-17T18:49:06.004Z,13.42
2019-05-17T18:51:35.493Z,13.28
2019-05-17T18:54:06.109Z,13.31
2019-05-17T18:56:35.633Z,13.32
2019-05-17T18:59:05.129Z,13.27
2019-05-17T19:01:34.535Z,13.24
2019-05-17T19:04:04.136Z,13.25
2019-05-17T19:06:33.735Z,13.39
2019-05-17T19:09:03.419Z,13.31
2019-05-17T19:11:32.866Z,13.36
2019-05-17T19:14:02.326Z,13.24
2019-05-17T19:16:31.870Z,13.07
2019-05-17T19:19:01.454Z,12.91
2019-05-17T19:21:32.124Z,12.89
2019-05-17T19:24:01.669Z,12.81
2019-05-17T19:26:31.231Z,12.78
2019-05-17T19:29:00.772Z,12.93
2019-05-17T19:31:30.999Z,12.93
2019-05-17T19:34:00.845Z,12.85
2019-05-17T19:36:30.363Z,12.51
2019-05-17T19:39:00.029Z,12.53
2019-05-17T19:41:29.831Z,12.50
2019-05-17T19:43:59.833Z,12.50
2019-05-17T19:46:29.459Z,12.60
2019-05-17T19:48:58.919Z,12.56
2019-05-17T19:51:28.463Z,12.64
2019-05-17T19:53:57.985Z,12.73
2019-05-17T19:56:27.521Z,12.78
2019-05-17T19:58:56.953Z,12.73
2019-05-17T20:01:26.554Z,12.73
2019-05-17T20:03:56.215Z,12.70
2019-05-17T20:06:25.637Z,12.73
2019-05-17T20:08:55.090Z,12.81
2019-05-17T20:11:33.983Z,12.83
2019-05-17T20:13:55.762Z,12.74
2019-05-17T20:16:26.326Z,12.72
2019-05-17T20:18:55.961Z,12.67
2019-05-17T20:21:25.549Z,12.78
2019-05-17T20:23:55.104Z,12.74
2019-05-17T20:26:24.707Z,12.66
2019-05-17T20:28:54.207Z,12.63
2019-05-17T20:31:23.691Z,12.56
2019-05-17T20:33:53.256Z,12.56
2019-05-17T20:36:22.908Z,12.50
2019-05-17T20:38:52.357Z,12.50
2019-05-17T20:41:21.931Z,12.37
2019-05-17T20:43:51.519Z,12.38
2019-05-17T20:46:21.184Z,12.37
2019-05-17T20:48:50.712Z,12.37
2019-05-17T20:51:20.175Z,12.16
2019-05-17T20:53:49.635Z,12.22
2019-05-17T20:56:32.019Z,12.22
2019-05-17T20:58:50.703Z,12.19
2019-05-17T21:01:20.159Z,12.16
2019-05-17T21:03:49.720Z,12.16
2019-05-17T21:06:19.247Z,12.05
2019-05-17T21:08:48.879Z,12.05
2019-05-17T21:11:18.354Z,12.06
2019-05-17T21:13:47.931Z,12.12
2019-05-17T21:16:17.377Z,12.12
2019-05-17T21:18:46.877Z,11.99
2019-05-17T21:21:16.729Z,11.99
2019-05-17T21:23:46.181Z,11.91
2019-05-17T21:26:15.739Z,11.91
2019-05-17T21:28:47.227Z,11.80
2019-05-17T21:31:16.462Z,11.80
2019-05-17T21:33:45.880Z,11.78
2019-05-17T21:36:15.354Z,11.60
2019-05-17T21:38:45.062Z,11.68
2019-05-17T21:41:14.582Z,11.68
2019-05-17T21:43:44.153Z,11.81
2019-05-17T21:46:13.717Z,11.81
2019-05-17T21:48:43.265Z,11.81
2019-05-17T21:51:12.805Z,11.78
2019-05-17T21:53:42.345Z,11.75
2019-05-17T21:56:11.888Z,11.75
2019-05-17T21:58:41.409Z,11.77
2019-05-17T22:01:15.624Z,11.62
2019-05-17T22:03:45.398Z,11.48
2019-05-17T22:06:15.054Z,11.48
2019-05-17T22:08:44.651Z,11.44
2019-05-17T22:11:14.298Z,11.76
2019-05-17T22:13:43.750Z,11.79
2019-05-17T22:16:19.577Z,11.80
2019-05-17T22:18:44.795Z,11.72
2019-05-17T22:21:14.259Z,11.46
2019-05-17T22:23:43.807Z,11.55
2019-05-17T22:26:13.340Z,11.58
2019-05-17T22:28:42.846Z,11.63
2019-05-17T22:31:12.395Z,11.63
2019-05-17T22:33:41.937Z,11.64
2019-05-17T22:36:11.581Z,11.57
2019-05-17T22:38:41.061Z,11.55
2019-05-17T22:41:10.640Z,11.32
2019-05-17T22:43:40.138Z,11.33
2019-05-17T22:46:09.944Z,11.25
